< < Back
Terminal Aerodrome Forecast


Current Version              Previous Versions:   1  2  3  4  5  6  7  8  9  

Terminal Aerodrome Forecast

088
FTUS44 KBMX 220300 AAA
TAFBHM
TAF AMD
KBHM 220300Z 2203/2224 27007KT P6SM SCT050
     FM220315 33006KT P6SM VCTS SCT025 BKN040CB
     FM220530 33005KT P6SM BKN040
     FM221100 01006KT P6SM FEW250=

Latest METAR

767
SAUS70 KWBC 220600 RRB
MTRBHM
METAR KBHM 220553Z 33007KT 10SM VCTS BKN050 OVC075 23/21 A3003 RMK AO2
RAB22E39 SLP159 LTGIC W P0000 60000 T02330211 10294 20233
403220172 53002


USA.gov is the U.S. government's official web portal to all federal, state and local government web resources and services.